sensor_id;sensor_type;location;lat;lon;timestamp;pressure;altitude;pressure_sealevel;temperature;humidity
46942;BME280;32676;52.630;4.896;2023-01-29T00:00:04;102589.13;;;5.45;77.57
46942;BME280;32676;52.630;4.896;2023-01-29T00:02:34;102603.13;;;5.50;77.59
46942;BME280;32676;52.630;4.896;2023-01-29T00:05:00;102595.25;;;5.47;77.44
46942;BME280;32676;52.630;4.896;2023-01-29T00:07:28;102624.97;;;5.55;77.40
46942;BME280;32676;52.630;4.896;2023-01-29T00:09:54;102629.31;;;5.56;77.20
46942;BME280;32676;52.630;4.896;2023-01-29T00:12:21;102632.81;;;5.58;77.30
46942;BME280;32676;52.630;4.896;2023-01-29T00:14:48;102635.38;;;5.56;77.06
46942;BME280;32676;52.630;4.896;2023-01-29T00:17:14;102635.41;;;5.58;76.93
46942;BME280;32676;52.630;4.896;2023-01-29T00:19:41;102638.03;;;5.58;76.83
46942;BME280;32676;52.630;4.896;2023-01-29T00:22:07;102638.03;;;5.58;76.90
46942;BME280;32676;52.630;4.896;2023-01-29T00:24:35;102639.78;;;5.59;76.85
46942;BME280;32676;52.630;4.896;2023-01-29T00:27:02;102642.41;;;5.59;76.82
46942;BME280;32676;52.630;4.896;2023-01-29T00:29:30;102641.53;;;5.60;76.59
46942;BME280;32676;52.630;4.896;2023-01-29T00:31:56;102645.88;;;5.60;76.51
46942;BME280;32676;52.630;4.896;2023-01-29T00:34:23;102634.53;;;5.56;76.27
46942;BME280;32676;52.630;4.896;2023-01-29T00:36:49;102645.00;;;5.59;75.97
46942;BME280;32676;52.630;4.896;2023-01-29T00:39:16;102650.28;;;5.62;75.69
46942;BME280;32676;52.630;4.896;2023-01-29T00:41:49;102646.75;;;5.60;75.52
46942;BME280;32676;52.630;4.896;2023-01-29T00:44:33;102646.75;;;5.60;75.25
46942;BME280;32676;52.630;4.896;2023-01-29T00:47:25;102638.06;;;5.60;75.20
46942;BME280;32676;52.630;4.896;2023-01-29T00:49:59;102645.00;;;5.59;74.98
46942;BME280;32676;52.630;4.896;2023-01-29T00:52:25;102656.38;;;5.63;74.90
46942;BME280;32676;52.630;4.896;2023-01-29T00:54:54;102660.72;;;5.62;74.74
46942;BME280;32676;52.630;4.896;2023-01-29T00:57:23;102659.84;;;5.63;74.77
46942;BME280;32676;52.630;4.896;2023-01-29T00:59:51;102664.22;;;5.64;74.71
46942;BME280;32676;52.630;4.896;2023-01-29T01:02:17;102667.75;;;5.66;74.71
46942;BME280;32676;52.630;4.896;2023-01-29T01:05:02;102659.03;;;5.64;74.31
46942;BME280;32676;52.630;4.896;2023-01-29T01:07:30;102665.94;;;5.64;74.11
46942;BME280;32676;52.630;4.896;2023-01-29T01:09:57;102650.28;;;5.62;74.13
46942;BME280;32676;52.630;4.896;2023-01-29T01:12:50;102649.34;;;5.58;73.82
46942;BME280;32676;52.630;4.896;2023-01-29T01:15:19;102658.94;;;5.61;73.94
46942;BME280;32676;52.630;4.896;2023-01-29T01:17:46;102652.91;;;5.62;73.61
46942;BME280;32676;52.630;4.896;2023-01-29T01:20:14;102671.19;;;5.65;73.51
46942;BME280;32676;52.630;4.896;2023-01-29T01:22:40;102672.97;;;5.66;73.38
46942;BME280;32676;52.630;4.896;2023-01-29T01:25:08;102667.75;;;5.66;73.18
46942;BME280;32676;52.630;4.896;2023-01-29T01:27:34;102674.69;;;5.67;72.84
46942;BME280;32676;52.630;4.896;2023-01-29T01:30:09;102688.63;;;5.69;72.70
46942;BME280;32676;52.630;4.896;2023-01-29T01:32:36;102678.19;;;5.66;72.82
46942;BME280;32676;52.630;4.896;2023-01-29T01:35:03;102691.31;;;5.72;72.61
46942;BME280;32676;52.630;4.896;2023-01-29T01:37:30;102693.06;;;5.72;72.46
46942;BME280;32676;52.630;4.896;2023-01-29T01:39:56;102683.41;;;5.69;72.58
46942;BME280;32676;52.630;4.896;2023-01-29T01:42:27;102677.31;;;5.67;72.59
46942;BME280;32676;52.630;4.896;2023-01-29T01:44:57;102674.69;;;5.67;72.46
46942;BME280;32676;52.630;4.896;2023-01-29T01:47:34;102668.50;;;5.61;72.81
46942;BME280;32676;52.630;4.896;2023-01-29T01:50:06;102685.19;;;5.70;72.76
46942;BME280;32676;52.630;4.896;2023-01-29T01:52:38;102683.41;;;5.69;72.69
46942;BME280;32676;52.630;4.896;2023-01-29T01:55:08;102671.16;;;5.62;72.68
46942;BME280;32676;52.630;4.896;2023-01-29T01:57:35;102687.84;;;5.72;72.45
46942;BME280;32676;52.630;4.896;2023-01-29T02:00:07;102698.31;;;5.73;72.52
46942;BME280;32676;52.630;4.896;2023-01-29T02:02:37;102693.09;;;5.73;72.44
46942;BME280;32676;52.630;4.896;2023-01-29T02:05:24;102695.69;;;5.73;72.30
46942;BME280;32676;52.630;4.896;2023-01-29T02:08:08;102714.84;;;5.75;72.35
46942;BME280;32676;52.630;4.896;2023-01-29T02:10:52;102710.50;;;5.76;72.25
46942;BME280;32676;52.630;4.896;2023-01-29T02:13:20;102709.56;;;5.72;72.21
46942;BME280;32676;52.630;4.896;2023-01-29T02:15:47;102734.94;;;5.81;72.08
46942;BME280;32676;52.630;4.896;2023-01-29T02:18:17;102728.88;;;5.81;72.02
46942;BME280;32676;52.630;4.896;2023-01-29T02:20:48;102724.47;;;5.80;72.03
46942;BME280;32676;52.630;4.896;2023-01-29T02:23:41;102734.09;;;5.81;72.00
46942;BME280;32676;52.630;4.896;2023-01-29T02:26:39;102718.38;;;5.77;71.94
46942;BME280;32676;52.630;4.896;2023-01-29T02:29:17;102718.38;;;5.77;72.08
46942;BME280;32676;52.630;4.896;2023-01-29T02:31:57;102707.91;;;5.76;72.10
46942;BME280;32676;52.630;4.896;2023-01-29T02:34:35;102711.38;;;5.76;72.13
46942;BME280;32676;52.630;4.896;2023-01-29T02:37:25;102714.00;;;5.78;72.15
46942;BME280;32676;52.630;4.896;2023-01-29T02:40:04;102713.16;;;5.77;72.29
46942;BME280;32676;52.630;4.896;2023-01-29T02:42:34;102697.41;;;5.71;72.47
46942;BME280;32676;52.630;4.896;2023-01-29T02:45:09;102697.34;;;5.68;72.35
46942;BME280;32676;52.630;4.896;2023-01-29T02:47:41;102700.03;;;5.74;72.49
46942;BME280;32676;52.630;4.896;2023-01-29T02:50:14;102683.41;;;5.68;72.75
46942;BME280;32676;52.630;4.896;2023-01-29T02:52:45;102698.31;;;5.73;72.70
46942;BME280;32676;52.630;4.896;2023-01-29T02:55:22;102700.00;;;5.71;72.99
46942;BME280;32676;52.630;4.896;2023-01-29T02:57:55;102665.81;;;5.56;72.90
46942;BME280;32676;52.630;4.896;2023-01-29T03:00:26;102693.03;;;5.70;73.06
46942;BME280;32676;52.630;4.896;2023-01-29T03:02:58;102701.78;;;5.74;73.38
46942;BME280;32676;52.630;4.896;2023-01-29T03:05:30;102694.78;;;5.73;73.48
46942;BME280;32676;52.630;4.896;2023-01-29T03:08:02;102672.09;;;5.67;73.61
46942;BME280;32676;52.630;4.896;2023-01-29T03:10:34;102672.97;;;5.66;73.58
46942;BME280;32676;52.630;4.896;2023-01-29T03:13:06;102662.53;;;5.66;73.99
46942;BME280;32676;52.630;4.896;2023-01-29T03:15:39;102673.81;;;5.67;73.85
46942;BME280;32676;52.630;4.896;2023-01-29T03:18:13;102667.69;;;5.63;74.12
46942;BME280;32676;52.630;4.896;2023-01-29T03:20:44;102672.06;;;5.64;74.01
46942;BME280;32676;52.630;4.896;2023-01-29T03:23:16;102667.75;;;5.66;74.11
46942;BME280;32676;52.630;4.896;2023-01-29T03:26:03;102668.56;;;5.65;74.47
46942;BME280;32676;52.630;4.896;2023-01-29T03:28:50;102640.66;;;5.60;74.55
46942;BME280;32676;52.630;4.896;2023-01-29T03:31:36;102631.06;;;5.57;74.49
46942;BME280;32676;52.630;4.896;2023-01-29T03:34:21;102624.97;;;5.55;74.91
46942;BME280;32676;52.630;4.896;2023-01-29T03:36:55;102610.09;;;5.51;74.82
46942;BME280;32676;52.630;4.896;2023-01-29T03:39:24;102592.69;;;5.50;75.23
46942;BME280;32676;52.630;4.896;2023-01-29T03:41:55;102579.56;;;5.45;75.25
46942;BME280;32676;52.630;4.896;2023-01-29T03:44:29;102580.41;;;5.43;75.41
46942;BME280;32676;52.630;4.896;2023-01-29T03:47:08;102568.22;;;5.42;75.55
46942;BME280;32676;52.630;4.896;2023-01-29T03:49:46;102540.25;;;5.31;75.63
46942;BME280;32676;52.630;4.896;2023-01-29T03:52:22;102556.00;;;5.37;75.94
46942;BME280;32676;52.630;4.896;2023-01-29T03:54:55;102549.00;;;5.36;75.96
46942;BME280;32676;52.630;4.896;2023-01-29T03:57:30;102534.19;;;5.34;75.94
46942;BME280;32676;52.630;4.896;2023-01-29T04:00:04;102515.88;;;5.29;76.02
46942;BME280;32676;52.630;4.896;2023-01-29T04:02:38;102528.06;;;5.30;76.22
46942;BME280;32676;52.630;4.896;2023-01-29T04:05:10;102501.03;;;5.25;76.43
46942;BME280;32676;52.630;4.896;2023-01-29T04:07:39;102495.78;;;5.24;76.54
46942;BME280;32676;52.630;4.896;2023-01-29T04:10:11;102487.97;;;5.22;76.63
46942;BME280;32676;52.630;4.896;2023-01-29T04:12:43;102487.97;;;5.22;76.83
46942;BME280;32676;52.630;4.896;2023-01-29T04:15:13;102470.50;;;5.18;76.82
46942;BME280;32676;52.630;4.896;2023-01-29T04:17:48;102449.56;;;5.12;76.90
46942;BME280;32676;52.630;4.896;2023-01-29T04:20:16;102440.88;;;5.10;77.15
46942;BME280;32676;52.630;4.896;2023-01-29T04:22:45;102442.59;;;5.11;77.35
46942;BME280;32676;52.630;4.896;2023-01-29T04:25:18;102452.22;;;5.13;77.28
46942;BME280;32676;52.630;4.896;2023-01-29T04:27:56;102467.91;;;5.18;77.44
46942;BME280;32676;52.630;4.896;2023-01-29T04:30:37;102478.38;;;5.19;77.55
46942;BME280;32676;52.630;4.896;2023-01-29T04:33:16;102477.50;;;5.19;77.54
46942;BME280;32676;52.630;4.896;2023-01-29T04:35:57;102472.28;;;5.19;77.60
46942;BME280;32676;52.630;4.896;2023-01-29T04:38:41;102474.03;;;5.20;77.63
46942;BME280;32676;52.630;4.896;2023-01-29T04:41:17;102484.44;;;5.20;77.38
46942;BME280;32676;52.630;4.896;2023-01-29T04:43:56;102479.22;;;5.20;77.52
46942;BME280;32676;52.630;4.896;2023-01-29T04:46:26;102486.22;;;5.21;77.44
46942;BME280;32676;52.630;4.896;2023-01-29T04:49:05;102489.72;;;5.23;77.56
46942;BME280;32676;52.630;4.896;2023-01-29T04:51:44;102494.94;;;5.23;77.57
46942;BME280;32676;52.630;4.896;2023-01-29T04:54:17;102486.22;;;5.21;77.58
46942;BME280;32676;52.630;4.896;2023-01-29T04:56:50;102463.56;;;5.17;77.74
46942;BME280;32676;52.630;4.896;2023-01-29T04:59:20;102463.56;;;5.17;77.73
46942;BME280;32676;52.630;4.896;2023-01-29T05:01:49;102451.28;;;5.10;77.79
46942;BME280;32676;52.630;4.896;2023-01-29T05:04:19;102463.50;;;5.14;77.99
46942;BME280;32676;52.630;4.896;2023-01-29T05:06:46;102470.50;;;5.18;77.91
46942;BME280;32676;52.630;4.896;2023-01-29T05:09:15;102474.88;;;5.19;78.22
46942;BME280;32676;52.630;4.896;2023-01-29T05:11:44;102473.13;;;5.18;78.11
46942;BME280;32676;52.630;4.896;2023-01-29T05:14:14;102481.00;;;5.21;78.22
46942;BME280;32676;52.630;4.896;2023-01-29T05:16:44;102498.41;;;5.24;78.13
46942;BME280;32676;52.630;4.896;2023-01-29T05:19:13;102482.75;;;5.21;78.11
46942;BME280;32676;52.630;4.896;2023-01-29T05:21:43;102467.84;;;5.13;78.16
46942;BME280;32676;52.630;4.896;2023-01-29T05:24:13;102484.44;;;5.20;78.22
46942;BME280;32676;52.630;4.896;2023-01-29T05:26:41;102472.28;;;5.19;78.33
46942;BME280;32676;52.630;4.896;2023-01-29T05:29:25;102477.50;;;5.19;78.28
46942;BME280;32676;52.630;4.896;2023-01-29T05:31:52;102477.50;;;5.19;78.51
46942;BME280;32676;52.630;4.896;2023-01-29T05:34:19;102487.97;;;5.22;78.50
46942;BME280;32676;52.630;4.896;2023-01-29T05:36:47;102476.63;;;5.20;78.55
46942;BME280;32676;52.630;4.896;2023-01-29T05:39:13;102474.88;;;5.19;78.47
46942;BME280;32676;52.630;4.896;2023-01-29T05:41:39;102470.50;;;5.18;78.48
46942;BME280;32676;52.630;4.896;2023-01-29T05:44:06;102472.28;;;5.19;78.68
46942;BME280;32676;52.630;4.896;2023-01-29T05:46:32;102473.16;;;5.19;78.70
46942;BME280;32676;52.630;4.896;2023-01-29T05:48:59;102474.88;;;5.19;78.71
46942;BME280;32676;52.630;4.896;2023-01-29T05:51:25;102493.19;;;5.24;78.93
46942;BME280;32676;52.630;4.896;2023-01-29T05:53:53;102490.59;;;5.22;79.05
46942;BME280;32676;52.630;4.896;2023-01-29T05:56:20;102480.94;;;5.18;79.30
46942;BME280;32676;52.630;4.896;2023-01-29T05:58:46;102474.03;;;5.20;79.63
46942;BME280;32676;52.630;4.896;2023-01-29T06:01:15;102471.38;;;5.17;80.07
46942;BME280;32676;52.630;4.896;2023-01-29T06:03:43;102460.06;;;5.15;80.45
46942;BME280;32676;52.630;4.896;2023-01-29T06:06:10;102450.44;;;5.12;80.93
46942;BME280;32676;52.630;4.896;2023-01-29T06:08:36;102448.69;;;5.10;81.24
46942;BME280;32676;52.630;4.896;2023-01-29T06:11:06;102428.63;;;5.06;81.51
46942;BME280;32676;52.630;4.896;2023-01-29T06:13:33;102430.38;;;5.07;81.88
46942;BME280;32676;52.630;4.896;2023-01-29T06:15:59;102420.81;;;5.04;82.00
46942;BME280;32676;52.630;4.896;2023-01-29T06:18:26;102411.19;;;5.02;82.19
46942;BME280;32676;52.630;4.896;2023-01-29T06:20:52;102408.56;;;5.00;82.36
46942;BME280;32676;52.630;4.896;2023-01-29T06:23:18;102405.97;;;5.02;82.61
46942;BME280;32676;52.630;4.896;2023-01-29T06:25:45;102408.56;;;5.00;82.82
46942;BME280;32676;52.630;4.896;2023-01-29T06:28:13;102392.91;;;4.97;83.26
46942;BME280;32676;52.630;4.896;2023-01-29T06:30:39;102387.69;;;4.97;83.14
46942;BME280;32676;52.630;4.896;2023-01-29T06:33:06;102384.19;;;4.95;83.33
46942;BME280;32676;52.630;4.896;2023-01-29T06:35:32;102383.28;;;4.94;83.54
46942;BME280;32676;52.630;4.896;2023-01-29T06:37:59;102393.75;;;4.97;83.61
46942;BME280;32676;52.630;4.896;2023-01-29T06:40:25;102380.69;;;4.94;83.86
46942;BME280;32676;52.630;4.896;2023-01-29T06:42:51;102360.66;;;4.90;83.83
46942;BME280;32676;52.630;4.896;2023-01-29T06:45:19;102362.41;;;4.91;83.77
46942;BME280;32676;52.630;4.896;2023-01-29T06:47:46;102370.22;;;4.91;84.01
46942;BME280;32676;52.630;4.896;2023-01-29T06:50:12;102365.88;;;4.90;84.05
46942;BME280;32676;52.630;4.896;2023-01-29T06:52:41;102364.09;;;4.89;84.07
46942;BME280;32676;52.630;4.896;2023-01-29T06:55:08;102370.22;;;4.91;84.28
46942;BME280;32676;52.630;4.896;2023-01-29T06:57:35;102365.03;;;4.91;84.27
46942;BME280;32676;52.630;4.896;2023-01-29T07:00:01;102383.28;;;4.94;84.32
46942;BME280;32676;52.630;4.896;2023-01-29T07:02:29;102408.56;;;5.00;84.48
46942;BME280;32676;52.630;4.896;2023-01-29T07:04:56;102402.47;;;4.99;84.37
46942;BME280;32676;52.630;4.896;2023-01-29T07:07:22;102408.56;;;5.00;84.28
46942;BME280;32676;52.630;4.896;2023-01-29T07:09:49;102413.78;;;5.02;84.26
46942;BME280;32676;52.630;4.896;2023-01-29T07:12:15;102417.31;;;5.02;84.29
46942;BME280;32676;52.630;4.896;2023-01-29T07:14:42;102404.25;;;5.00;84.50
46942;BME280;32676;52.630;4.896;2023-01-29T07:17:08;102388.50;;;4.94;84.40
46942;BME280;32676;52.630;4.896;2023-01-29T07:19:36;102392.88;;;4.95;84.18
46942;BME280;32676;52.630;4.896;2023-01-29T07:22:02;102373.59;;;4.84;84.23
46942;BME280;32676;52.630;4.896;2023-01-29T07:24:29;102383.28;;;4.94;84.42
46942;BME280;32676;52.630;4.896;2023-01-29T07:26:56;102375.44;;;4.93;84.45
46942;BME280;32676;52.630;4.896;2023-01-29T07:29:22;102393.69;;;4.94;84.33
46942;BME280;32676;52.630;4.896;2023-01-29T07:31:49;102383.28;;;4.94;84.30
46942;BME280;32676;52.630;4.896;2023-01-29T07:34:15;102384.19;;;4.95;84.38
46942;BME280;32676;52.630;4.896;2023-01-29T07:36:43;102383.28;;;4.94;84.39
46942;BME280;32676;52.630;4.896;2023-01-29T07:39:10;102381.56;;;4.93;84.67
46942;BME280;32676;52.630;4.896;2023-01-29T07:41:36;102382.41;;;4.94;84.50
46942;BME280;32676;52.630;4.896;2023-01-29T07:44:03;102366.69;;;4.89;84.62
46942;BME280;32676;52.630;4.896;2023-01-29T07:46:30;102357.16;;;4.88;84.62
46942;BME280;32676;52.630;4.896;2023-01-29T07:48:57;102351.94;;;4.88;84.68
46942;BME280;32676;52.630;4.896;2023-01-29T07:51:23;102371.94;;;4.91;84.99
46942;BME280;32676;52.630;4.896;2023-01-29T07:53:51;102384.19;;;4.95;85.02
46942;BME280;32676;52.630;4.896;2023-01-29T07:56:18;102392.00;;;4.96;85.08
46942;BME280;32676;52.630;4.896;2023-01-29T07:58:44;102398.09;;;4.97;85.00
46942;BME280;32676;52.630;4.896;2023-01-29T08:01:11;102405.94;;;4.98;85.14
46942;BME280;32676;52.630;4.896;2023-01-29T08:03:37;102398.97;;;4.97;85.04
46942;BME280;32676;52.630;4.896;2023-01-29T08:06:04;102412.91;;;4.99;85.15
46942;BME280;32676;52.630;4.896;2023-01-29T08:08:31;102425.13;;;5.04;85.10
46942;BME280;32676;52.630;4.896;2023-01-29T08:11:00;102438.19;;;5.07;85.18
46942;BME280;32676;52.630;4.896;2023-01-29T08:13:27;102453.03;;;5.11;85.18
46942;BME280;32676;52.630;4.896;2023-01-29T08:15:58;102476.59;;;5.17;85.05
46942;BME280;32676;52.630;4.896;2023-01-29T08:18:24;102488.78;;;5.19;84.95
46942;BME280;32676;52.630;4.896;2023-01-29T08:20:51;102528.00;;;5.27;84.78
46942;BME280;32676;52.630;4.896;2023-01-29T08:23:18;102547.22;;;5.32;84.71
46942;BME280;32676;52.630;4.896;2023-01-29T08:25:44;102542.88;;;5.31;84.54
46942;BME280;32676;52.630;4.896;2023-01-29T08:28:12;102555.09;;;5.35;84.35
46942;BME280;32676;52.630;4.896;2023-01-29T08:30:39;102559.41;;;5.33;84.28
46942;BME280;32676;52.630;4.896;2023-01-29T08:33:05;102561.09;;;5.31;84.04
46942;BME280;32676;52.630;4.896;2023-01-29T08:35:31;102586.47;;;5.42;83.96
46942;BME280;32676;52.630;4.896;2023-01-29T08:37:59;102578.63;;;5.38;83.79
46942;BME280;32676;52.630;4.896;2023-01-29T08:40:28;102590.84;;;5.43;84.06
46942;BME280;32676;52.630;4.896;2023-01-29T08:42:57;102597.78;;;5.44;84.09
46942;BME280;32676;52.630;4.896;2023-01-29T08:45:25;102631.88;;;5.54;83.86
46942;BME280;32676;52.630;4.896;2023-01-29T08:47:51;102661.53;;;5.60;84.00
46942;BME280;32676;52.630;4.896;2023-01-29T08:50:18;102668.53;;;5.64;84.01
46942;BME280;32676;52.630;4.896;2023-01-29T08:52:45;102692.94;;;5.67;83.91
46942;BME280;32676;52.630;4.896;2023-01-29T08:55:12;102714.78;;;5.72;84.01
46942;BME280;32676;52.630;4.896;2023-01-29T08:57:38;102719.19;;;5.75;83.99
46942;BME280;32676;52.630;4.896;2023-01-29T09:00:07;102723.59;;;5.77;83.83
46942;BME280;32676;52.630;4.896;2023-01-29T09:02:36;102738.41;;;5.80;83.68
46942;BME280;32676;52.630;4.896;2023-01-29T09:05:03;102743.66;;;5.82;83.64
46942;BME280;32676;52.630;4.896;2023-01-29T09:07:29;102748.84;;;5.79;83.70
46942;BME280;32676;52.630;4.896;2023-01-29T09:09:56;102769.81;;;5.85;83.64
46942;BME280;32676;52.630;4.896;2023-01-29T09:12:26;102743.56;;;5.77;83.40
46942;BME280;32676;52.630;4.896;2023-01-29T09:14:52;102766.34;;;5.86;83.36
46942;BME280;32676;52.630;4.896;2023-01-29T09:17:19;102791.69;;;5.93;83.42
46942;BME280;32676;52.630;4.896;2023-01-29T09:19:47;102827.53;;;6.02;83.40
46942;BME280;32676;52.630;4.896;2023-01-29T09:22:13;102863.38;;;6.10;83.25
46942;BME280;32676;52.630;4.896;2023-01-29T09:24:40;102900.97;;;6.19;83.20
46942;BME280;32676;52.630;4.896;2023-01-29T09:27:06;102934.13;;;6.24;83.21
46942;BME280;32676;52.630;4.896;2023-01-29T09:29:34;102957.78;;;6.32;83.10
46942;BME280;32676;52.630;4.896;2023-01-29T09:32:00;102975.22;;;6.34;83.33
46942;BME280;32676;52.630;4.896;2023-01-29T09:34:27;102979.66;;;6.37;83.29
46942;BME280;32676;52.630;4.896;2023-01-29T09:36:55;102961.28;;;6.34;83.48
46942;BME280;32676;52.630;4.896;2023-01-29T09:39:21;102973.53;;;6.35;83.58
46942;BME280;32676;52.630;4.896;2023-01-29T09:41:55;102988.38;;;6.39;83.88
46942;BME280;32676;52.630;4.896;2023-01-29T09:44:40;102991.00;;;6.39;83.98
46942;BME280;32676;52.630;4.896;2023-01-29T09:47:13;102987.47;;;6.37;84.18
46942;BME280;32676;52.630;4.896;2023-01-29T09:49:46;102951.53;;;6.25;84.18
46942;BME280;32676;52.630;4.896;2023-01-29T09:52:17;102956.00;;;6.31;84.49
46942;BME280;32676;52.630;4.896;2023-01-29T09:54:53;102963.88;;;6.32;84.73
46942;BME280;32676;52.630;4.896;2023-01-29T09:57:24;102977.91;;;6.38;84.85
46942;BME280;32676;52.630;4.896;2023-01-29T09:59:53;102980.44;;;6.34;84.86
46942;BME280;32676;52.630;4.896;2023-01-29T10:02:39;102997.09;;;6.40;85.04
46942;BME280;32676;52.630;4.896;2023-01-29T10:05:28;103025.97;;;6.47;85.34
46942;BME280;32676;52.630;4.896;2023-01-29T10:08:21;103036.47;;;6.50;85.14
46942;BME280;32676;52.630;4.896;2023-01-29T10:10:59;103036.53;;;6.52;85.17
46942;BME280;32676;52.630;4.896;2023-01-29T10:13:39;103050.44;;;6.52;85.21
46942;BME280;32676;52.630;4.896;2023-01-29T10:16:18;103052.22;;;6.53;85.06
46942;BME280;32676;52.630;4.896;2023-01-29T10:19:21;103060.97;;;6.56;84.98
46942;BME280;32676;52.630;4.896;2023-01-29T10:22:11;103074.09;;;6.60;84.81
46942;BME280;32676;52.630;4.896;2023-01-29T10:24:48;103121.34;;;6.69;84.79
46942;BME280;32676;52.630;4.896;2023-01-29T10:27:18;103119.63;;;6.70;84.75
46942;BME280;32676;52.630;4.896;2023-01-29T10:29:48;103117.00;;;6.70;84.44
46942;BME280;32676;52.630;4.896;2023-01-29T10:32:20;103130.97;;;6.72;84.34
46942;BME280;32676;52.630;4.896;2023-01-29T10:34:51;103122.22;;;6.70;84.13
46942;BME280;32676;52.630;4.896;2023-01-29T10:37:22;103117.88;;;6.70;83.97
46942;BME280;32676;52.630;4.896;2023-01-29T10:39:50;103139.72;;;6.74;83.84
46942;BME280;32676;52.630;4.896;2023-01-29T10:42:27;103150.25;;;6.77;83.78
46942;BME280;32676;52.630;4.896;2023-01-29T10:45:05;103175.63;;;6.83;83.62
46942;BME280;32676;52.630;4.896;2023-01-29T10:48:20;103173.06;;;6.84;83.53
46942;BME280;32676;52.630;4.896;2023-01-29T10:50:54;103165.97;;;6.80;83.41
46942;BME280;32676;52.630;4.896;2023-01-29T10:53:32;103150.25;;;6.77;83.29
46942;BME280;32676;52.630;4.896;2023-01-29T10:56:15;103171.28;;;6.83;83.13
46942;BME280;32676;52.630;4.896;2023-01-29T10:58:48;103189.63;;;6.86;83.24
46942;BME280;32676;52.630;4.896;2023-01-29T11:01:16;103171.28;;;6.83;83.26
46942;BME280;32676;52.630;4.896;2023-01-29T11:03:42;103171.22;;;6.82;83.25
46942;BME280;32676;52.630;4.896;2023-01-29T11:06:13;103185.25;;;6.85;83.34
46942;BME280;32676;52.630;4.896;2023-01-29T11:08:45;103163.38;;;6.82;83.26
46942;BME280;32676;52.630;4.896;2023-01-29T11:11:17;103157.22;;;6.78;83.10
46942;BME280;32676;52.630;4.896;2023-01-29T11:13:49;103156.41;;;6.81;83.36
46942;BME280;32676;52.630;4.896;2023-01-29T11:16:17;103145.84;;;6.76;83.43
46942;BME280;32676;52.630;4.896;2023-01-29T11:18:50;103136.28;;;6.75;83.40
46942;BME280;32676;52.630;4.896;2023-01-29T11:21:17;103135.38;;;6.75;83.41
46942;BME280;32676;52.630;4.896;2023-01-29T11:23:43;103142.38;;;6.76;83.46
46942;BME280;32676;52.630;4.896;2023-01-29T11:26:11;103143.25;;;6.76;83.48
46942;BME280;32676;52.630;4.896;2023-01-29T11:28:41;103154.63;;;6.80;83.49
46942;BME280;32676;52.630;4.896;2023-01-29T11:31:18;103166.03;;;6.83;83.28
46942;BME280;32676;52.630;4.896;2023-01-29T11:33:46;103173.06;;;6.84;83.04
46942;BME280;32676;52.630;4.896;2023-01-29T11:36:35;103194.00;;;6.87;82.81
46942;BME280;32676;52.630;4.896;2023-01-29T11:39:16;103232.56;;;6.98;82.59
46942;BME280;32676;52.630;4.896;2023-01-29T11:41:54;103228.22;;;6.98;82.38
46942;BME280;32676;52.630;4.896;2023-01-29T11:44:26;103236.09;;;7.00;82.38
46942;BME280;32676;52.630;4.896;2023-01-29T11:46:53;103238.69;;;7.00;82.16
46942;BME280;32676;52.630;4.896;2023-01-29T11:49:26;103251.84;;;7.03;82.12
46942;BME280;32676;52.630;4.896;2023-01-29T11:51:56;103272.84;;;7.06;82.05
46942;BME280;32676;52.630;4.896;2023-01-29T11:54:26;103266.75;;;7.07;82.08
46942;BME280;32676;52.630;4.896;2023-01-29T11:56:56;103268.53;;;7.08;82.09
46942;BME280;32676;52.630;4.896;2023-01-29T11:59:35;103260.59;;;7.05;82.06
46942;BME280;32676;52.630;4.896;2023-01-29T12:02:10;103257.16;;;7.06;81.94
46942;BME280;32676;52.630;4.896;2023-01-29T12:04:38;103257.97;;;7.05;81.96
46942;BME280;32676;52.630;4.896;2023-01-29T12:07:11;103270.22;;;7.07;81.78
46942;BME280;32676;52.630;4.896;2023-01-29T12:09:39;103253.59;;;7.04;81.89
46942;BME280;32676;52.630;4.896;2023-01-29T12:12:17;103237.88;;;7.01;82.14
46942;BME280;32676;52.630;4.896;2023-01-29T12:15:01;103209.81;;;6.94;82.68
46942;BME280;32676;52.630;4.896;2023-01-29T12:17:29;103192.25;;;6.86;82.92
46942;BME280;32676;52.630;4.896;2023-01-29T12:20:03;103170.44;;;6.84;83.29
46942;BME280;32676;52.630;4.896;2023-01-29T12:22:40;103144.16;;;6.78;83.80
46942;BME280;32676;52.630;4.896;2023-01-29T12:25:19;103145.94;;;6.79;84.15
46942;BME280;32676;52.630;4.896;2023-01-29T12:27:52;103154.63;;;6.80;84.71
46942;BME280;32676;52.630;4.896;2023-01-29T12:30:26;103125.75;;;6.72;84.80
46942;BME280;32676;52.630;4.896;2023-01-29T12:32:58;103145.91;;;6.78;85.15
46942;BME280;32676;52.630;4.896;2023-01-29T12:35:30;103138.94;;;6.78;85.26
46942;BME280;32676;52.630;4.896;2023-01-29T12:38:01;103149.41;;;6.80;85.63
46942;BME280;32676;52.630;4.896;2023-01-29T12:40:32;103149.44;;;6.81;85.72
46942;BME280;32676;52.630;4.896;2023-01-29T12:43:05;103130.91;;;6.69;85.89
46942;BME280;32676;52.630;4.896;2023-01-29T12:45:38;103141.53;;;6.78;85.97
46942;BME280;32676;52.630;4.896;2023-01-29T12:48:08;103141.53;;;6.78;86.03
46942;BME280;32676;52.630;4.896;2023-01-29T12:50:37;103149.38;;;6.78;86.42
46942;BME280;32676;52.630;4.896;2023-01-29T12:53:07;103151.22;;;6.82;86.33
46942;BME280;32676;52.630;4.896;2023-01-29T12:55:40;103135.41;;;6.76;86.39
46942;BME280;32676;52.630;4.896;2023-01-29T12:58:12;103107.31;;;6.64;86.30
46942;BME280;32676;52.630;4.896;2023-01-29T13:00:44;103088.91;;;6.60;86.42
46942;BME280;32676;52.630;4.896;2023-01-29T13:03:18;103083.75;;;6.63;86.56
46942;BME280;32676;52.630;4.896;2023-01-29T13:05:47;103072.44;;;6.62;86.45
46942;BME280;32676;52.630;4.896;2023-01-29T13:08:18;103049.66;;;6.57;86.53
46942;BME280;32676;52.630;4.896;2023-01-29T13:10:49;103029.56;;;6.52;86.67
46942;BME280;32676;52.630;4.896;2023-01-29T13:13:23;103020.72;;;6.44;86.85
46942;BME280;32676;52.630;4.896;2023-01-29T13:15:54;103038.31;;;6.54;86.80
46942;BME280;32676;52.630;4.896;2023-01-29T13:18:35;103042.72;;;6.57;87.04
46942;BME280;32676;52.630;4.896;2023-01-29T13:21:03;103075.06;;;6.64;86.98